Map

Track Data

SID SEASON NUMBER BASIN SUBBASIN NAME ISO_TIME NATURE LAT LON WMO_WIND WMO_PRES WMO_AGENCY TRACK_TYPE DIST2LAND LANDFALL IFLAG USA_AGENCY USA_ATCF_ID USA_LAT USA_LON USA_RECORD USA_STATUS USA_WIND USA_PRES USA_SSHS USA_R34_NE USA_R34_SE USA_R34_SW USA_R34_NW USA_R50_NE USA_R50_SE USA_R50_SW USA_R50_NW USA_R64_NE USA_R64_SE USA_R64_SW USA_R64_NW USA_POCI USA_ROCI USA_RMW USA_EYE TOKYO_LAT TOKYO_LON TOKYO_GRADE TOKYO_WIND TOKYO_PRES TOKYO_R50_DIR TOKYO_R50_LONG TOKYO_R50_SHORT TOKYO_R30_DIR TOKYO_R30_LONG TOKYO_R30_SHORT TOKYO_LAND CMA_LAT CMA_LON CMA_CAT CMA_WIND CMA_PRES HKO_LAT HKO_LON HKO_CAT HKO_WIND HKO_PRES NEWDELHI_LAT NEWDELHI_LON NEWDELHI_GRADE NEWDELHI_WIND NEWDELHI_PRES NEWDELHI_CI NEWDELHI_DP NEWDELHI_POCI REUNION_LAT REUNION_LON REUNION_TYPE REUNION_WIND REUNION_PRES REUNION_TNUM REUNION_CI REUNION_RMW REUNION_R34_NE REUNION_R34_SE REUNION_R34_SW REUNION_R34_NW REUNION_R50_NE REUNION_R50_SE REUNION_R50_SW REUNION_R50_NW REUNION_R64_NE REUNION_R64_SE REUNION_R64_SW REUNION_R64_NW BOM_LAT BOM_LON BOM_TYPE BOM_WIND BOM_PRES BOM_TNUM BOM_CI BOM_RMW BOM_R34_NE BOM_R34_SE BOM_R34_SW BOM_R34_NW BOM_R50_NE BOM_R50_SE BOM_R50_SW BOM_R50_NW BOM_R64_NE BOM_R64_SE BOM_R64_SW BOM_R64_NW BOM_ROCI BOM_POCI BOM_EYE BOM_POS_METHOD BOM_PRES_METHOD NADI_LAT NADI_LON NADI_CAT NADI_WIND NADI_PRES WELLINGTON_LAT WELLINGTON_LON WELLINGTON_WIND WELLINGTON_PRES DS824_LAT DS824_LON DS824_STAGE DS824_WIND DS824_PRES TD9636_LAT TD9636_LON TD9636_STAGE TD9636_WIND TD9636_PRES TD9635_LAT TD9635_LON TD9635_WIND TD9635_PRES TD9635_ROCI NEUMANN_LAT NEUMANN_LON NEUMANN_CLASS NEUMANN_WIND NEUMANN_PRES MLC_LAT MLC_LON MLC_CLASS MLC_WIND MLC_PRES USA_GUST BOM_GUST BOM_GUST_PER REUNION_GUST REUNION_GUST_PER USA_SEAHGT USA_SEARAD_NE USA_SEARAD_SE USA_SEARAD_SW USA_SEARAD_NW STORM_SPEED STORM_DIR
1967338N05088 1967 139 NI BB NOT_NAMED 1967-12-03 18:00:00 TS 4.90000 88.4000 main 755 755 O________O____ jtwc_io IO151967 4.90000 88.4000 -1 4.90000 88.4000 TC 1 309
1967338N05088 1967 139 NI BB NOT_NAMED 1967-12-03 21:00:00 TS 4.93502 88.3700 main 755 732 P________P____ IO151967 4.93502 88.3700 -1 4.93502 88.3700 TC 2 297
1967338N05088 1967 139 NI BB NOT_NAMED 1967-12-04 00:00:00 TS 5.00000 88.2000 main 732 686 O________O____ jtwc_io IO151967 5.00000 88.2000 -1 5.00000 88.2000 TC 25 6 287
1967338N05088 1967 139 NI BB NOT_NAMED 1967-12-04 03:00:00 TS 5.11767 87.7799 main 686 606 P________PO___ IO151967 5.11988 87.7774 -1 5.11988 87.7774 TC 25 5.10000 87.8000 1 12 285
1967338N05088 1967 139 NI BB NOT_NAMED 1967-12-04 06:00:00 TS 5.30561 87.0548 main 606 504 O________OP___ jtwc_io IO151967 5.30000 87.1000 -1 5.30000 87.1000 TC 25 5.32806 86.8741 1 17 284
1967338N05088 1967 139 NI BB NOT_NAMED 1967-12-04 09:00:00 TS 5.53781 86.0977 main 494 388 P________PP___ IO151967 5.52789 86.1351 -1 5.52789 86.1351 TC 25 5.56428 85.9980 1 19 285
1967338N05088 1967 139 NI BB NOT_NAMED 1967-12-04 12:00:00 TS 5.80609 85.2077 main 388 325 O________OP___ jtwc_io IO151967 5.80000 85.2000 -1 5.80000 85.2000 TC 25 5.81828 85.2230 1 16 291
1967338N05088 1967 139 NI BB NOT_NAMED 1967-12-04 15:00:00 TS 6.09483 84.6350 main 315 273 P________PO___ IO151967 6.09225 84.6525 -1 6.09225 84.6525 TC 25 6.10000 84.6000 1 11 302
1967338N05088 1967 139 NI BB NOT_NAMED 1967-12-04 18:00:00 TS 6.40442 84.2534 main 273 234 O________OP___ jtwc_io IO151967 6.40000 84.3000 -1 6.40000 84.3000 TC 25 6.41327 84.1602 1 9 312
1967338N05088 1967 139 NI BB NOT_NAMED 1967-12-04 21:00:00 TS 6.71713 83.9374 main 223 198 P________PP___ IO151967 6.70743 83.9774 -1 6.70743 83.9774 TC 25 6.73651 83.8574 1 8 317
1967338N05088 1967 139 NI BB NOT_NAMED 1967-12-05 00:00:00 TS 7.01385 83.6753 main 198 169 O________OP___ jtwc_io IO151967 7.00000 83.7000 -1 7.00000 83.7000 TC 25 7.04156 83.6259 1 8 317
1967338N05088 1967 139 NI BB NOT_NAMED 1967-12-05 03:00:00 TS 7.28664 83.4050 main 169 143 P________PO___ IO151967 7.27996 83.4075 -1 7.27996 83.4075 TC 30 7.30000 83.4000 1 8 310
1967338N05088 1967 139 NI BB NOT_NAMED 1967-12-05 06:00:00 TS 7.49852 83.0940 main 143 110 O________OP___ jtwc_io IO151967 7.50000 83.1000 -1 7.50000 83.1000 TC 35 7.49557 83.0821 1 7 298
1967338N05088 1967 139 NI BB NOT_NAMED 1967-12-05 09:00:00 TS 7.63331 82.7524 main 110 67 P________PP___ IO151967 7.63000 82.7500 -1 7.63000 82.7500 TC 35 7.63992 82.7574 1 7 288
1967338N05088 1967 139 NI BB NOT_NAMED 1967-12-05 12:00:00 TS 7.71310 82.4097 main 67 39 O________OP___ jtwc_io IO151967 7.70000 82.4000 -1 7.70000 82.4000 TC 35 7.73931 82.4290 1 7 283
1967338N05088 1967 139 NI BB NOT_NAMED 1967-12-05 15:00:00 TS 7.78163 82.1000 main 39 15 P________PO___ IO151967 7.77245 82.1000 -1 7.77245 82.1000 TC 35 7.80000 82.1000 3 6 278
1967338N05088 1967 139 NI BB NOT_NAMED 1967-12-05 18:00:00 TS 7.79846 81.7807 main 15 0 O________OP___ jtwc_io IO151967 7.80000 81.8000 -1 7.80000 81.8000 TC 35 7.79538 81.7422 3 7 267
1967338N05088 1967 139 NI BB NOT_NAMED 1967-12-05 21:00:00 TS 7.74421 81.4298 main 0 0 P________PP___ IO151967 7.73501 81.4499 -1 7.73501 81.4499 TC 35 7.76262 81.3896 3 7 263
1967338N05088 1967 139 NI BB NOT_NAMED 1967-12-06 00:00:00 TS 7.71618 81.0891 main 0 0 O________OP___ jtwc_io IO151967 7.70000 81.1000 -1 7.70000 81.1000 TC 35 7.74853 81.0673 3 7 275
1967338N05088 1967 139 NI BB NOT_NAMED 1967-12-06 03:00:00 TS 7.79834 80.7750 main 0 0 P________PO___ IO151967 7.79751 80.7626 -1 7.79751 80.7626 TC 35 7.80000 80.8000 3 6 297
1967338N05088 1967 139 NI BB NOT_NAMED 1967-12-06 06:00:00 TS 7.99402 80.5338 main 0 0 O________OP___ jtwc_io IO151967 8.00000 80.5000 -1 8.00000 80.5000 TC 35 7.98206 80.6014 3 6 321
1967338N05088 1967 139 NI BB NOT_NAMED 1967-12-06 09:00:00 TS 8.27243 80.3901 main 0 0 P________PP___ IO151967 8.29247 80.3550 -1 8.29247 80.3550 TC 35 8.23236 80.4602 3 6 340
1967338N05088 1967 139 NI BB NOT_NAMED 1967-12-06 12:00:00 TS 8.57216 80.3213 main 0 0 O________OP___ jtwc_io IO151967 8.60000 80.3000 -1 8.60000 80.3000 TC 35 8.51648 80.3638 3 5 350
1967338N05088 1967 139 NI BB NOT_NAMED 1967-12-06 15:00:00 TS 8.80500 80.2950 main 0 0 P________PO___ IO151967 8.80749 80.2925 -1 8.80749 80.2925 TC 35 8.80000 80.3000 3 4 355
1967338N05088 1967 139 NI BB NOT_NAMED 1967-12-06 18:00:00 TS 9.00937 80.2821 main 0 0 O________OP___ jtwc_io IO151967 9.00000 80.3000 -1 9.00000 80.3000 TC 35 9.02810 80.2461 3 5 352
1967338N05088 1967 139 NI BB NOT_NAMED 1967-12-06 21:00:00 TS 9.24999 80.2400 main 0 0 P________PP___ IO151967 9.25000 80.2500 -1 9.25000 80.2500 TC 50 9.24997 80.2199 3 5 351
1967338N05088 1967 139 NI BB NOT_NAMED 1967-12-07 00:00:00 TS 9.49062 80.2029 main 0 0 O________OP___ jtwc_io IO151967 9.50000 80.2000 -1 9.50000 80.2000 TC 65 9.47186 80.2087 3 5 354
1967338N05088 1967 139 NI BB NOT_NAMED 1967-12-07 03:00:00 TS 9.69500 80.2000 main 0 0 P________PO___ IO151967 9.69250 80.2000 -1 9.69250 80.2000 TC 65 9.70000 80.2000 4 4 357
1967338N05088 1967 139 NI BB NOT_NAMED 1967-12-07 06:00:00 TS 9.91968 80.1984 main 22 22 O________OP___ jtwc_io IO151967 9.90000 80.2000 -1 9.90000 80.2000 TC 65 9.95903 80.1952 4 5 355
1967338N05088 1967 139 NI BB NOT_NAMED 1967-12-07 09:00:00 TS 10.2075 80.1675 main 34 21 P________PP___ IO151967 10.2000 80.1575 -1 10.2000 80.1575 TC 65 10.2224 80.1874 4 6 352
1967338N05088 1967 139 NI BB NOT_NAMED 1967-12-07 12:00:00 TS 10.4915 80.1203 main 21 21 O________OP___ jtwc_io IO151967 10.5000 80.1000 -1 10.5000 80.1000 TC 65 10.4746 80.1608 4 5 350
1967338N05088 1967 139 NI BB NOT_NAMED 1967-12-07 15:00:00 TS 10.7150 80.0766 main 21 10 P________PO___ IO151967 10.7225 80.0650 -1 10.7225 80.0650 TC 50 10.7000 80.1000 4 4 345
1967338N05088 1967 139 NI BB NOT_NAMED 1967-12-07 18:00:00 TS 10.9023 80.0129 main 10 0 O________OP___ jtwc_io IO151967 10.9000 80.0000 -1 10.9000 80.0000 TC 35 10.9069 80.0388 4 4 333
1967338N05088 1967 139 NI BB NOT_NAMED 1967-12-07 21:00:00 TS 11.0707 79.8984 main 0 0 P________PP___ IO151967 11.0650 79.8800 -1 11.0650 79.8800 TC 35 11.0820 79.9351 4 4 317
1967338N05088 1967 139 NI BB NOT_NAMED 1967-12-08 00:00:00 TS 11.2054 79.7213 main 0 0 O________OP___ jtwc_io IO151967 11.2000 79.7000 -1 11.2000 79.7000 TC 35 11.2161 79.7639 4 5 303
1967338N05088 1967 139 NI BB NOT_NAMED 1967-12-08 03:00:00 TS 11.3199 79.5017 main 0 0 P________PO___ IO151967 11.3299 79.5025 -1 11.3299 79.5025 TC 30 11.3000 79.5000 2 6 287
1967338N05088 1967 139 NI BB NOT_NAMED 1967-12-08 06:00:00 TS 11.3713 79.1710 main 0 0 O________OP___ jtwc_io IO151967 11.4000 79.2000 -1 11.4000 79.2000 TC 25 11.3282 79.1276 2 8 272
1967338N05088 1967 139 NI BB NOT_NAMED 1967-12-08 09:00:00 TS 11.3492 78.7116 main 0 0 P________PP___ IO151967 11.3778 78.7449 -1 11.3778 78.7449 TC 25 11.3112 78.6671 2 10 265
1967338N05088 1967 139 NI BB NOT_NAMED 1967-12-08 12:00:00 TS 11.2818 78.1740 main 0 0 O________OP___ jtwc_io IO151967 11.3000 78.2000 -1 11.3000 78.2000 TC 25 11.2636 78.1481 2 11 262
1967338N05088 1967 139 NI AS NOT_NAMED 1967-12-08 15:00:00 NR 11.2000 77.6000 main 0 __________O___ IO151967 -1 TC 11.2000 77.6000 1 11 262

About IBTrACS Database

This database is a web-friendly format of International Best Track Archive for Climate Stewardship (IBTrACS), a global best track data archive curated by NOAA dating back to 1842.

Updated: 2021-10-21